Waarschuwingen Friesland

Code Groen. Er zijn momenteel geen waarschuwingen van kracht.

Bron: KNMI


Webcam Zuidwest  Webcam Zuidwest


Onweer radar more information blitzortung!


Regen radar more information rain snow radar


Weerstation Noordbergum

Weerstation Luyksgestel

Website Noardburgum


U vindt ons ook hier:

Het Weer Aktueel

UK Metoffice

European Weather Network

Weather Underground

AWEKAS

Citizen Weather Observer Program (CWOP)

HAMweather, WeatherForYou, PWS Weather



METAR rapporten vliegvelden

   
EHLW - Leeuwarden Rnlaf, Netherlands
Afstand tot: W 17 km
Gewijzigd: 07-10-2022 17:18
Grotendeels bewolkt  
Grotendeels bewolkt  
   Wind: ZW 29.6 km/h
Wind: ZW 29.6 km/h
Temperatuur: 16°C
Dauwpunt: 12°C
Vochtigheid: 77%
Barometer: 1016 hPa
Bewolking: Grotendeels bewolkt
Zicht: meer dan 10 km
Bewolking: Gedeeltelijk bewolkt 2200 ft,
Gedeeltelijk bewolkt 4700 ft,
Grotendeels bewolkt 5300 ft
EHLW 071518Z AUTO 22016KT 190V250 9999 SCT022 SCT047 BKN053 16/12 Q1016 WHT
EHMA - Awg-1 Sea, Netherlands
Afstand tot: N 31 km
Gewijzigd: 07-10-2022 16:55
Grotendeels bewolkt  
Grotendeels bewolkt  
   Wind: ZZW 40.7 km/h
Wind: ZZW 40.7 km/h
Temperatuur: 16°C
Dauwpunt: 12°C
Vochtigheid: 77%
Barometer: 1015 hPa
Bewolking: Grotendeels bewolkt
Zicht: meer dan 10 km
Bewolking: Gedeeltelijk bewolkt 1700 ft,
Grotendeels bewolkt 2100 ft,
Grotendeels bewolkt 2600 ft
EHMA 071455Z AUTO 21022KT 9999 SCT017 BKN021 BKN026 16/12 Q1015
EHGG - Groningen/Eelde, Netherlands
Afstand tot: OZO 40 km
Gewijzigd: 07-10-2022 16:55
Grotendeels bewolkt  
Grotendeels bewolkt  
   Wind: ZZW 27.8 km/h
Wind: ZZW 27.8 km/h
Temperatuur: 16°C
Dauwpunt: 11°C
Vochtigheid: 72%
Barometer: 1017 hPa
Bewolking: Grotendeels bewolkt
Zicht: meer dan 10 km
Bewolking: Licht bewolkt 2900 ft,
Grotendeels bewolkt 3300 ft
EHGG 071455Z AUTO 21015KT 180V240 9999 FEW029 BKN033 16/11 Q1017 NOSIG
EHVL - Vlieland Island, Netherlands
Afstand tot: W 72 km
Gewijzigd: 07-10-2022 17:15
Grotendeels bewolkt  
Grotendeels bewolkt  
   Wind: ZZW 44.4 km/h
Wind: ZZW 44.4 km/h
Temperatuur: 16°C
Dauwpunt: 13°C
Vochtigheid: 83%
Barometer: 1015 hPa
Bewolking: Grotendeels bewolkt
Zicht: meer dan 10 km
Bewolking: Licht bewolkt 1500 ft,
Gedeeltelijk bewolkt 2400 ft,
Grotendeels bewolkt 2800 ft
EHVL 071515Z AUTO 21024KT 9999 FEW015 SCT024 BKN028 16/13 Q1015 WHT
EHMG - L9-Ff-1 Sea, Netherlands
Afstand tot: WNW 81 km
Gewijzigd: 07-10-2022 16:55
Gedeeltelijk bewolkt  
Gedeeltelijk bewolkt  
   Wind: ZW 64.8 km/h
Wind: ZW 64.8 km/h
Temperatuur: 17°C
Dauwpunt: 12°C
Vochtigheid: 73%
Barometer: 1015 hPa
Bewolking: Gedeeltelijk bewolkt
Zicht: meer dan 10 km
Bewolking: Licht bewolkt 1600 ft,
Gedeeltelijk bewolkt 2100 ft
EHMG 071455Z AUTO 22035KT 9999 FEW016 SCT021 17/12 Q1015
EHKD - De Kooy (navy), Netherlands
Afstand tot: WZW 89 km
Gewijzigd: 07-10-2022 17:06
Bewolking  
Bewolking  
   Wind: ZW 33.3 km/h<br />Gust to 33.3 km/h
Wind: ZW 33.3 km/h
Gust to 33.3 km/h
Temperatuur: 16°C
Dauwpunt: 13°C
Vochtigheid: 83%
Barometer: 1016 hPa
Bewolking: Bewolking
Zicht: meer dan 10 km
Bewolking: Licht bewolkt 1300 ft,
Grotendeels bewolkt 1600 ft,
Bewolking 2000 ft
EHKD 071506Z AUTO 22018G28KT 190V250 9999 FEW013 BKN016 OVC020 16/13 Q1016 WHT TEMPO 21021G31KT FEW012 SCT014 BKN020

Script ontwikkeld door  Saratoga-weather.org Aangepast voor de template door  Weerstation Leuven

Apparatuur in gebruik:

Weerstation
Davis Vantage pro 2

Weerprogramma
Meteobridge

Weercomputer
Meteobridge Nano SD

Webleverancier
Versio

Davis Vantage pro 2

Meteobridge

Meteobridge Nano SD

Versio